createdAt,value
2018-10-01T03:14:29.941Z,1001.24
2018-10-01T03:15:29.731Z,1001.21
2018-10-01T03:16:29.715Z,1001.19
2018-10-01T03:17:29.744Z,1001.21
2018-10-01T03:18:29.733Z,1001.19
2018-10-01T03:19:29.715Z,1001.22
2018-10-01T03:20:29.686Z,1001.20
2018-10-01T03:21:29.711Z,1001.19
2018-10-01T03:22:29.672Z,1001.17
2018-10-01T03:23:29.678Z,1001.18
2018-10-01T03:24:29.667Z,1001.25
2018-10-01T03:25:29.657Z,1001.20
2018-10-01T03:26:29.656Z,1001.22
2018-10-01T03:27:29.655Z,1001.23
2018-10-01T03:28:29.672Z,1001.17
2018-10-01T03:29:29.637Z,1001.20
2018-10-01T03:30:29.627Z,1001.22
2018-10-01T03:31:29.633Z,1001.22
2018-10-01T03:32:29.630Z,1001.22
2018-10-01T03:33:29.639Z,1001.22
2018-10-01T03:34:29.610Z,1001.21
2018-10-01T03:35:29.618Z,1001.20
2018-10-01T03:36:29.617Z,1001.23
2018-10-01T03:37:29.601Z,1001.22
2018-10-01T03:38:29.603Z,1001.23
2018-10-01T03:39:29.591Z,1001.24
2018-10-01T03:40:29.585Z,1001.26
2018-10-01T03:41:29.601Z,1001.20
2018-10-01T03:42:29.591Z,1001.23
2018-10-01T03:43:29.593Z,1001.25
2018-10-01T03:44:29.575Z,1001.28
2018-10-01T03:45:29.580Z,1001.25
2018-10-01T03:46:29.594Z,1001.28
2018-10-01T03:47:29.567Z,1001.29
2018-10-01T03:48:29.558Z,1001.31
2018-10-01T03:49:29.554Z,1001.32
2018-10-01T03:50:29.547Z,1001.31
2018-10-01T03:51:29.571Z,1001.35
2018-10-01T03:52:29.547Z,1001.38
2018-10-01T03:53:29.535Z,1001.39
2018-10-01T03:54:29.533Z,1001.41
2018-10-01T03:55:29.540Z,1001.40
2018-10-01T03:56:29.522Z,1001.41
2018-10-01T03:57:29.570Z,1001.46
2018-10-01T03:58:29.517Z,1001.45
2018-10-01T03:59:29.518Z,1001.46
2018-10-01T04:00:29.512Z,1001.52
2018-10-01T04:01:29.503Z,1001.53
2018-10-01T04:02:29.516Z,1001.52
2018-10-01T04:03:29.497Z,1001.50
2018-10-01T04:04:29.493Z,1001.54
2018-10-01T04:05:38.143Z,1001.53
2018-10-01T04:07:22.926Z,1001.62
2018-10-01T04:08:32.454Z,1001.63
2018-10-01T04:10:16.330Z,1001.65
2018-10-01T04:12:45.071Z,1001.66
2018-10-01T04:13:37.279Z,1001.70
2018-10-01T04:15:58.482Z,1001.72
2018-10-01T04:16:58.299Z,1001.74
2018-10-01T04:17:58.289Z,1001.74
2018-10-01T04:18:58.276Z,1001.77
2018-10-01T04:19:58.284Z,1001.79
2018-10-01T04:20:58.511Z,1001.76
2018-10-01T04:21:58.285Z,1001.79
2018-10-01T04:22:58.271Z,1001.81
2018-10-01T04:23:58.264Z,1001.89
2018-10-01T04:24:58.300Z,1001.87
2018-10-01T04:25:58.255Z,1001.90
2018-10-01T04:26:58.274Z,1001.93
2018-10-01T04:27:58.253Z,1001.94
2018-10-01T04:28:58.262Z,1001.95
2018-10-01T04:29:58.261Z,1001.97
2018-10-01T04:30:58.273Z,1001.98
2018-10-01T04:31:58.239Z,1001.99
2018-10-01T04:32:58.264Z,1001.99
2018-10-01T04:34:06.877Z,1002.03
2018-10-01T04:35:51.724Z,1002.01
2018-10-01T04:38:12.695Z,1002.03
2018-10-01T04:39:12.636Z,1002.05
2018-10-01T04:40:12.641Z,1002.08
2018-10-01T04:41:12.657Z,1002.05
2018-10-01T04:42:12.653Z,1002.09
2018-10-01T04:43:12.627Z,1002.07
2018-10-01T04:44:12.611Z,1002.09
2018-10-01T04:45:12.634Z,1002.08
2018-10-01T04:46:12.607Z,1002.11
2018-10-01T04:47:12.636Z,1002.14
2018-10-01T04:48:12.603Z,1002.13
2018-10-01T04:49:12.621Z,1002.14
2018-10-01T04:50:12.629Z,1002.15
2018-10-01T04:51:12.616Z,1002.14
2018-10-01T04:52:12.585Z,1002.18
2018-10-01T04:53:12.603Z,1002.19
2018-10-01T04:54:12.601Z,1002.20
2018-10-01T04:55:12.604Z,1002.21
2018-10-01T04:56:12.570Z,1002.20
2018-10-01T04:57:12.571Z,1002.23
2018-10-01T04:58:12.604Z,1002.24
2018-10-01T04:59:12.560Z,1002.21
2018-10-01T05:00:12.562Z,1002.25
2018-10-01T05:01:12.546Z,1002.26
2018-10-01T05:02:12.602Z,1002.27
2018-10-01T05:03:12.588Z,1002.32
2018-10-01T05:04:12.545Z,1002.34
2018-10-01T05:05:12.564Z,1002.33
2018-10-01T05:06:12.621Z,1002.31
2018-10-01T05:07:12.635Z,1002.34
2018-10-01T05:08:12.542Z,1002.33
2018-10-01T05:09:12.534Z,1002.32
2018-10-01T05:10:12.537Z,1002.32
2018-10-01T05:11:12.510Z,1002.35
2018-10-01T05:12:12.676Z,1002.39
2018-10-01T05:13:12.505Z,1002.38
2018-10-01T05:14:12.498Z,1002.37
2018-10-01T05:15:12.498Z,1002.40
2018-10-01T05:16:12.496Z,1002.40
2018-10-01T05:17:12.529Z,1002.43
2018-10-01T05:18:12.511Z,1002.39
2018-10-01T05:19:12.517Z,1002.44
2018-10-01T05:20:12.509Z,1002.45
2018-10-01T05:21:12.472Z,1002.44
2018-10-01T05:22:12.481Z,1002.46
2018-10-01T05:23:12.494Z,1002.43
2018-10-01T05:24:12.473Z,1002.49
2018-10-01T05:25:12.488Z,1002.51
2018-10-01T05:26:12.482Z,1002.50
2018-10-01T05:27:12.564Z,1002.48
2018-10-01T05:28:12.485Z,1002.53
2018-10-01T05:29:12.461Z,1002.54
2018-10-01T05:30:12.438Z,1002.58
2018-10-01T05:31:12.537Z,1002.59
2018-10-01T05:32:12.450Z,1002.59
2018-10-01T05:33:12.429Z,1002.66
2018-10-01T05:34:12.430Z,1002.64
2018-10-01T05:35:12.465Z,1002.69
2018-10-01T05:36:12.419Z,1002.66
2018-10-01T05:37:12.422Z,1002.74
2018-10-01T05:38:12.435Z,1002.71
2018-10-01T05:39:12.448Z,1002.75
2018-10-01T05:40:12.439Z,1002.76
2018-10-01T05:41:12.445Z,1002.73
2018-10-01T05:42:12.426Z,1002.74
2018-10-01T05:43:12.408Z,1002.78
2018-10-01T05:44:12.390Z,1002.77
2018-10-01T05:45:12.393Z,1002.77
2018-10-01T05:46:12.442Z,1002.79
2018-10-01T05:47:12.405Z,1002.82
2018-10-01T05:48:12.417Z,1002.82
2018-10-01T05:49:12.429Z,1002.81
2018-10-01T05:50:12.369Z,1002.80
2018-10-01T05:51:12.412Z,1002.82
2018-10-01T05:52:12.406Z,1002.84
2018-10-01T05:53:12.383Z,1002.83
2018-10-01T05:54:12.357Z,1002.87
2018-10-01T05:55:12.360Z,1002.87
2018-10-01T05:56:12.354Z,1002.90
2018-10-01T05:57:12.361Z,1002.85
2018-10-01T05:58:12.438Z,1002.88
2018-10-01T05:59:12.350Z,1002.94
2018-10-01T06:00:12.329Z,1002.96
2018-10-01T06:01:12.366Z,1002.96
2018-10-01T06:02:12.325Z,1002.94
2018-10-01T06:03:12.322Z,1002.98
2018-10-01T06:04:12.323Z,1002.99
2018-10-01T06:05:12.314Z,1003.00
2018-10-01T06:06:12.323Z,1002.98
2018-10-01T06:07:12.337Z,1003.03
2018-10-01T06:08:12.368Z,1003.00
2018-10-01T06:09:12.336Z,1003.04
2018-10-01T06:10:12.322Z,1003.03
2018-10-01T06:11:12.288Z,1003.04
2018-10-01T06:12:12.310Z,1003.04
2018-10-01T06:13:12.291Z,1003.05
2018-10-01T06:14:12.285Z,1003.09
2018-10-01T06:15:12.321Z,1003.10
2018-10-01T06:16:12.289Z,1003.09
2018-10-01T06:17:12.275Z,1003.13
2018-10-01T06:18:12.281Z,1003.13
2018-10-01T06:19:12.284Z,1003.11
2018-10-01T06:20:12.264Z,1003.13
2018-10-01T06:21:12.261Z,1003.17
2018-10-01T06:22:12.256Z,1003.17
2018-10-01T06:23:12.258Z,1003.17
2018-10-01T06:24:12.273Z,1003.20
2018-10-01T06:25:12.304Z,1003.21
2018-10-01T06:26:12.272Z,1003.23
2018-10-01T06:27:12.252Z,1003.20
2018-10-01T06:28:12.248Z,1003.25
2018-10-01T06:29:12.279Z,1003.25
2018-10-01T06:30:12.226Z,1003.23
2018-10-01T06:31:12.219Z,1003.26
2018-10-01T06:32:12.224Z,1003.29
2018-10-01T06:33:12.224Z,1003.28
2018-10-01T06:34:12.214Z,1003.27
2018-10-01T06:35:12.216Z,1003.33
2018-10-01T06:36:12.236Z,1003.32
2018-10-01T06:37:12.205Z,1003.36
2018-10-01T06:38:12.213Z,1003.37
2018-10-01T06:39:12.197Z,1003.37
2018-10-01T06:40:12.191Z,1003.40
2018-10-01T06:41:12.189Z,1003.38
2018-10-01T06:42:12.248Z,1003.39
2018-10-01T06:43:12.196Z,1003.38
2018-10-01T06:44:12.176Z,1003.39
2018-10-01T06:45:12.183Z,1003.40
2018-10-01T06:46:12.178Z,1003.35
2018-10-01T06:47:12.191Z,1003.36
2018-10-01T06:48:12.175Z,1003.40
2018-10-01T06:49:12.165Z,1003.38
2018-10-01T06:50:12.208Z,1003.37
2018-10-01T06:51:12.186Z,1003.42
2018-10-01T06:52:12.173Z,1003.41
2018-10-01T06:53:12.179Z,1003.42
2018-10-01T06:54:12.141Z,1003.44
2018-10-01T06:55:12.159Z,1003.40
2018-10-01T06:56:12.134Z,1003.44
2018-10-01T06:57:12.157Z,1003.45
2018-10-01T06:58:12.133Z,1003.47
2018-10-01T06:59:12.147Z,1003.50
2018-10-01T07:00:12.123Z,1003.48
2018-10-01T07:01:20.889Z,1003.49
2018-10-01T07:03:05.563Z,1003.58
2018-10-01T07:04:05.517Z,1003.58
2018-10-01T07:05:05.532Z,1003.59
2018-10-01T07:07:26.567Z,1003.65
